createdAt,value
2023-03-13T00:00:27.860Z,96707.56
2023-03-13T00:05:22.773Z,96710.25
2023-03-13T00:10:16.310Z,96710.97
2023-03-13T00:15:11.072Z,96700.34
2023-03-13T00:20:05.352Z,96703.59
2023-03-13T00:25:00.105Z,96694.41
2023-03-13T00:29:53.510Z,96680.75
2023-03-13T00:34:46.823Z,96682.50
2023-03-13T00:39:40.142Z,96676.13
2023-03-13T00:44:35.035Z,96688.44
2023-03-13T00:49:28.615Z,96689.03
2023-03-13T00:54:21.942Z,96680.50
2023-03-13T00:59:16.231Z,96673.59
2023-03-13T01:04:13.464Z,96666.50
2023-03-13T01:09:08.683Z,96662.78
2023-03-13T01:14:04.972Z,96655.59
2023-03-13T01:19:02.054Z,96658.09
2023-03-13T01:23:56.955Z,96651.81
2023-03-13T01:28:51.289Z,96658.59
2023-03-13T01:33:44.685Z,96654.75
2023-03-13T01:38:38.845Z,96644.66
2023-03-13T01:43:36.365Z,96640.91
2023-03-13T01:48:41.320Z,96631.94
2023-03-13T01:53:39.391Z,96629.22
2023-03-13T01:58:34.456Z,96620.16
2023-03-13T02:03:30.115Z,96620.25
2023-03-13T02:08:30.618Z,96618.38
2023-03-13T02:13:24.340Z,96616.59
2023-03-13T02:18:19.403Z,96598.34
2023-03-13T02:23:23.412Z,96604.19
2023-03-13T02:28:22.861Z,96595.63
2023-03-13T02:33:19.229Z,96599.72
2023-03-13T02:38:19.581Z,96583.94
2023-03-13T02:43:21.422Z,96579.16
2023-03-13T02:48:14.706Z,96565.19
2023-03-13T02:53:10.466Z,96566.75
2023-03-13T02:58:03.900Z,96553.59
2023-03-13T03:02:58.593Z,96539.72
2023-03-13T03:07:52.618Z,96530.94
2023-03-13T03:12:46.077Z,96540.97
2023-03-13T03:17:40.064Z,96543.25
2023-03-13T03:22:34.743Z,96549.50
2023-03-13T03:27:28.016Z,96551.19
2023-03-13T03:32:21.480Z,96540.75
2023-03-13T03:37:14.768Z,96538.53
2023-03-13T03:42:10.236Z,96542.84
2023-03-13T03:47:03.557Z,96537.19
2023-03-13T03:51:56.903Z,96540.63
2023-03-13T03:56:50.238Z,96529.03
2023-03-13T04:01:44.920Z,96511.53
2023-03-13T04:06:38.222Z,96521.22
2023-03-13T04:11:31.598Z,96527.94
2023-03-13T04:16:25.196Z,96513.00
2023-03-13T04:21:20.323Z,96516.44
2023-03-13T04:26:13.644Z,96496.84
2023-03-13T04:31:07.063Z,96496.00
2023-03-13T04:36:00.388Z,96478.69
2023-03-13T04:40:55.141Z,96495.25
2023-03-13T04:45:50.144Z,96478.63
2023-03-13T04:50:43.459Z,96473.97
2023-03-13T04:55:36.788Z,96464.97
2023-03-13T05:00:31.420Z,96472.59
2023-03-13T05:05:24.774Z,96501.63
2023-03-13T05:10:18.428Z,96505.09
2023-03-13T05:15:12.921Z,96514.00
2023-03-13T05:20:11.305Z,96511.19
2023-03-13T05:25:05.279Z,96518.84
2023-03-13T05:29:58.605Z,96520.00
2023-03-13T05:34:51.936Z,96513.84
2023-03-13T05:39:46.645Z,96521.38
2023-03-13T05:44:39.955Z,96524.25
2023-03-13T05:49:33.472Z,96531.97
2023-03-13T05:54:27.057Z,96523.28
2023-03-13T05:59:21.730Z,96528.16
2023-03-13T06:04:15.178Z,96513.63
2023-03-13T06:09:11.024Z,96513.84
2023-03-13T06:14:04.476Z,96512.09
2023-03-13T06:18:59.591Z,96511.34
2023-03-13T06:23:52.969Z,96506.88
2023-03-13T06:28:46.403Z,96507.69
2023-03-13T06:33:39.707Z,96502.84
2023-03-13T06:38:35.269Z,96515.94
2023-03-13T06:43:29.356Z,96510.47
2023-03-13T06:48:23.159Z,96498.34
2023-03-13T06:53:18.775Z,96505.97
2023-03-13T06:58:29.061Z,96504.88
2023-03-13T07:03:24.693Z,96497.50
2023-03-13T07:08:17.969Z,96482.44
2023-03-13T07:13:12.617Z,96464.59
2023-03-13T07:18:06.226Z,96459.38
2023-03-13T07:22:59.526Z,96459.38
2023-03-13T07:27:53.762Z,96454.72
2023-03-13T07:32:48.440Z,96470.66
2023-03-13T07:37:41.863Z,96472.09
2023-03-13T07:42:36.423Z,96476.72
2023-03-13T07:47:29.769Z,96476.25
2023-03-13T07:52:25.905Z,96475.31
2023-03-13T07:57:19.202Z,96495.03
2023-03-13T08:02:16.491Z,96490.84
2023-03-13T08:07:11.299Z,96478.19
2023-03-13T08:12:06.708Z,96486.09
2023-03-13T08:17:00.085Z,96487.78
2023-03-13T08:21:53.420Z,96490.00
2023-03-13T08:26:46.778Z,96488.59
2023-03-13T08:31:46.115Z,96478.06
2023-03-13T08:36:40.248Z,96461.69
2023-03-13T08:41:36.887Z,96466.31
2023-03-13T08:46:33.118Z,96452.19
2023-03-13T08:51:29.745Z,96450.75
2023-03-13T08:56:25.951Z,96454.09
2023-03-13T09:01:20.700Z,96447.53
2023-03-13T09:06:14.297Z,96456.00
2023-03-13T09:11:12.112Z,96436.50
2023-03-13T09:16:09.185Z,96440.94
2023-03-13T09:21:03.083Z,96423.81
2023-03-13T09:25:58.615Z,96420.56
2023-03-13T09:30:54.089Z,96411.53
2023-03-13T09:35:51.050Z,96391.78
2023-03-13T09:41:03.363Z,96401.03
2023-03-13T09:46:06.143Z,96379.19
2023-03-13T09:51:11.599Z,96372.50
2023-03-13T09:56:13.479Z,96364.84
2023-03-13T10:01:10.854Z,96355.00
2023-03-13T10:06:16.981Z,96352.25
2023-03-13T10:11:23.033Z,96342.59
2023-03-13T10:16:26.710Z,96325.84
2023-03-13T10:21:23.255Z,96315.97
2023-03-13T10:26:23.130Z,96319.38
2023-03-13T10:31:32.628Z,96309.03
2023-03-13T10:36:26.055Z,96304.75
2023-03-13T10:41:32.411Z,96285.41
2023-03-13T10:46:29.811Z,96274.69
2023-03-13T10:51:26.163Z,96263.78
2023-03-13T10:56:30.308Z,96260.28
2023-03-13T11:01:28.826Z,96233.31
2023-03-13T11:06:29.396Z,96228.34
2023-03-13T11:11:22.797Z,96212.56
2023-03-13T11:16:22.298Z,96212.38
2023-03-13T11:21:31.121Z,96192.88
2023-03-13T11:26:36.841Z,96174.03
2023-03-13T11:31:34.487Z,96171.91
2023-03-13T11:36:37.411Z,96168.88
2023-03-13T11:41:53.733Z,96162.63
2023-03-13T11:47:00.690Z,96159.97
2023-03-13T11:52:17.762Z,96149.28
2023-03-13T11:57:19.668Z,96145.66
2023-03-13T12:02:26.100Z,96138.63
2023-03-13T12:07:29.224Z,96126.66
2023-03-13T12:12:38.424Z,96114.81
2023-03-13T12:17:38.214Z,96086.06
2023-03-13T12:22:41.404Z,96084.13
2023-03-13T12:27:40.720Z,96066.13
2023-03-13T12:32:44.666Z,96042.72
2023-03-13T12:37:49.059Z,96027.75
2023-03-13T12:42:52.351Z,96002.28
2023-03-13T12:48:24.424Z,96009.53
2023-03-13T12:54:08.737Z,95981.03
2023-03-13T12:59:08.172Z,95973.19
2023-03-13T13:04:08.160Z,95963.94
2023-03-13T13:09:18.553Z,95945.41
2023-03-13T13:14:58.957Z,95928.22
2023-03-13T13:19:52.512Z,95911.25
2023-03-13T13:24:53.416Z,95889.38
2023-03-13T13:29:57.200Z,95881.63
2023-03-13T13:35:01.901Z,95879.47
2023-03-13T13:40:24.898Z,95873.78
2023-03-13T13:45:26.700Z,95855.72
2023-03-13T13:50:23.369Z,95849.78
2023-03-13T13:55:45.349Z,95828.47
2023-03-13T14:00:43.862Z,95821.19
2023-03-13T14:05:42.482Z,95798.59
2023-03-13T14:10:42.240Z,95801.44
2023-03-13T14:15:36.383Z,95789.09
2023-03-13T14:20:34.841Z,95767.88
2023-03-13T14:25:30.022Z,95745.19
2023-03-13T14:30:25.538Z,95757.25
2023-03-13T14:35:22.514Z,95767.25
2023-03-13T14:40:28.309Z,95764.28
2023-03-13T14:45:31.967Z,95772.13
2023-03-13T14:50:26.248Z,95746.81
2023-03-13T14:55:35.207Z,95746.72
2023-03-13T15:00:42.626Z,95714.53
2023-03-13T15:05:36.231Z,95718.78
2023-03-13T15:10:36.810Z,95703.16
2023-03-13T15:15:30.145Z,95690.25
2023-03-13T15:20:24.881Z,95688.25
2023-03-13T15:25:21.689Z,95688.28
2023-03-13T15:30:18.228Z,95677.50
2023-03-13T15:35:29.038Z,95659.00
2023-03-13T15:40:24.297Z,95647.72
2023-03-13T15:45:18.076Z,95623.19
2023-03-13T15:50:15.237Z,95612.78
2023-03-13T15:55:12.931Z,95596.25
2023-03-13T16:00:13.298Z,95586.59
2023-03-13T16:05:10.014Z,95568.69
2023-03-13T16:10:03.672Z,95557.94
2023-03-13T16:14:58.346Z,95543.09
2023-03-13T16:19:51.686Z,95537.47
2023-03-13T16:24:45.037Z,95523.72
2023-03-13T16:29:38.313Z,95499.94
2023-03-13T16:34:32.993Z,95494.91
2023-03-13T16:39:26.322Z,95475.34
2023-03-13T16:44:19.696Z,95469.81
2023-03-13T16:49:16.485Z,95455.53
2023-03-13T16:54:12.106Z,95462.34
2023-03-13T16:59:08.823Z,95449.81
2023-03-13T17:04:02.336Z,95430.59
2023-03-13T17:09:01.607Z,95425.88
2023-03-13T17:13:56.660Z,95421.09
2023-03-13T17:18:53.513Z,95415.47
2023-03-13T17:23:47.210Z,95400.41
2023-03-13T17:28:40.497Z,95382.00
2023-03-13T17:33:35.176Z,95368.06
2023-03-13T17:38:28.537Z,95350.00
2023-03-13T17:43:21.915Z,95342.22
2023-03-13T17:48:15.237Z,95326.22
2023-03-13T17:53:09.929Z,95323.38
2023-03-13T17:58:03.217Z,95339.06
2023-03-13T18:02:57.081Z,95332.03
2023-03-13T18:07:50.701Z,95322.63
2023-03-13T18:12:45.410Z,95309.34
2023-03-13T18:17:38.861Z,95304.59
2023-03-13T18:22:32.179Z,95290.47
2023-03-13T18:27:25.481Z,95283.59
2023-03-13T18:32:20.846Z,95283.84
2023-03-13T18:37:24.621Z,95277.66
2023-03-13T18:42:18.036Z,95274.25
2023-03-13T18:47:14.329Z,95259.47
2023-03-13T18:52:11.338Z,95262.28
2023-03-13T18:57:12.805Z,95253.25
2023-03-13T19:02:08.228Z,95276.72
2023-03-13T19:07:01.553Z,95278.72
2023-03-13T19:11:56.280Z,95294.31
2023-03-13T19:16:53.126Z,95271.34
2023-03-13T19:21:46.519Z,95250.97
2023-03-13T19:26:43.701Z,95225.22
2023-03-13T19:31:38.409Z,95226.19
2023-03-13T19:36:37.302Z,95237.53
2023-03-13T19:41:30.762Z,95244.09
2023-03-13T19:46:27.642Z,95242.75
2023-03-13T19:51:22.845Z,95248.31
2023-03-13T19:56:24.877Z,95255.22
2023-03-13T20:01:19.606Z,95294.22
2023-03-13T20:06:19.024Z,95326.25
2023-03-13T20:11:14.421Z,95328.09
2023-03-13T20:16:10.888Z,95341.56
2023-03-13T20:21:04.493Z,95386.47
2023-03-13T20:26:02.087Z,95401.53
2023-03-13T20:30:56.970Z,95402.00
2023-03-13T20:35:50.438Z,95426.63
2023-03-13T20:40:43.927Z,95485.31
2023-03-13T20:45:37.473Z,95564.16
2023-03-13T20:50:35.301Z,95560.66
2023-03-13T20:55:30.468Z,95592.66
2023-03-13T21:00:25.289Z,95647.28
2023-03-13T21:05:18.953Z,95650.50
2023-03-13T21:10:18.226Z,95633.06
2023-03-13T21:15:13.357Z,95643.38
2023-03-13T21:20:11.672Z,95649.56
2023-03-13T21:25:06.860Z,95631.13
2023-03-13T21:30:01.693Z,95620.44
2023-03-13T21:34:55.344Z,95617.25
2023-03-13T21:39:52.715Z,95611.34
2023-03-13T21:44:46.072Z,95605.88
2023-03-13T21:49:57.220Z,95596.69
2023-03-13T21:54:59.594Z,95593.84
2023-03-13T21:59:52.860Z,95585.31
2023-03-13T22:04:47.688Z,95572.50
2023-03-13T22:09:41.031Z,95564.59
2023-03-13T22:14:34.344Z,95567.84
2023-03-13T22:19:27.658Z,95595.94
2023-03-13T22:24:22.431Z,95591.16
2023-03-13T22:29:15.797Z,95603.56
2023-03-13T22:34:09.099Z,95590.94
2023-03-13T22:39:02.431Z,95603.47
2023-03-13T22:43:57.090Z,95609.16
2023-03-13T22:48:50.378Z,95595.31
2023-03-13T22:53:44.165Z,95612.16
2023-03-13T22:58:38.636Z,95620.00
2023-03-13T23:03:33.375Z,95623.59
2023-03-13T23:08:26.795Z,95646.78
2023-03-13T23:13:20.147Z,95645.16
2023-03-13T23:18:13.741Z,95658.88
2023-03-13T23:23:08.430Z,95665.13
2023-03-13T23:28:01.803Z,95692.38
2023-03-13T23:32:55.113Z,95697.09
2023-03-13T23:37:50.974Z,95697.69
2023-03-13T23:42:48.258Z,95711.75
2023-03-13T23:47:44.081Z,95693.19
2023-03-13T23:52:38.099Z,95680.78
2023-03-13T23:57:31.702Z,95678.16
